createdAt,value
2023-03-02T00:02:11.276Z,89.88
2023-03-02T00:04:51.131Z,90.79
2023-03-02T00:07:28.040Z,90.99
2023-03-02T00:09:56.025Z,90.71
2023-03-02T00:12:24.848Z,90.56
2023-03-02T00:14:52.774Z,90.47
2023-03-02T00:17:27.893Z,90.60
2023-03-02T00:20:12.807Z,90.84
2023-03-02T00:22:45.892Z,91.10
2023-03-02T00:25:15.662Z,91.53
2023-03-02T00:27:44.067Z,91.27
2023-03-02T00:30:13.377Z,90.77
2023-03-02T00:32:42.523Z,90.62
2023-03-02T00:35:11.381Z,91.04
2023-03-02T00:37:39.899Z,90.94
2023-03-02T00:40:09.754Z,90.93
2023-03-02T00:42:38.170Z,91.97
2023-03-02T00:45:07.337Z,91.92
2023-03-02T00:47:37.025Z,91.39
2023-03-02T00:50:06.955Z,91.16
2023-03-02T00:52:35.128Z,91.54
2023-03-02T00:55:03.158Z,91.99
2023-03-02T00:57:31.583Z,92.08
2023-03-02T01:00:00.000Z,92.33
2023-03-02T01:02:33.677Z,92.77
2023-03-02T01:05:01.983Z,92.31
2023-03-02T01:07:30.042Z,92.20
2023-03-02T01:09:58.037Z,92.45
2023-03-02T01:12:25.920Z,92.65
2023-03-02T01:14:55.207Z,93.01
2023-03-02T01:17:23.167Z,92.87
2023-03-02T01:19:52.781Z,92.58
2023-03-02T01:22:22.081Z,93.00
2023-03-02T01:24:50.460Z,93.06
2023-03-02T01:27:18.380Z,92.95
2023-03-02T01:29:46.551Z,93.02
2023-03-02T01:32:14.394Z,92.70
2023-03-02T01:34:42.687Z,92.45
2023-03-02T01:37:10.698Z,92.34
2023-03-02T01:39:38.724Z,92.88
2023-03-02T01:42:06.961Z,93.41
2023-03-02T01:44:45.649Z,94.00
2023-03-02T01:47:19.835Z,93.80
2023-03-02T01:50:24.852Z,93.63
2023-03-02T01:52:57.560Z,93.77
2023-03-02T01:55:29.372Z,93.75
2023-03-02T01:57:59.359Z,93.79
2023-03-02T02:00:33.307Z,93.70
2023-03-02T02:03:10.816Z,93.57
2023-03-02T02:05:43.250Z,94.26
2023-03-02T02:08:11.366Z,93.88
2023-03-02T02:10:40.457Z,94.13
2023-03-02T02:13:11.580Z,93.87
2023-03-02T02:15:40.948Z,94.23
2023-03-02T02:18:09.323Z,94.58
2023-03-02T02:20:44.998Z,93.69
2023-03-02T02:23:28.215Z,93.42
2023-03-02T02:25:56.151Z,93.88
2023-03-02T02:28:31.901Z,93.74
2023-03-02T02:31:26.753Z,94.14
2023-03-02T02:34:04.149Z,94.67
2023-03-02T02:36:37.966Z,95.45
2023-03-02T02:39:21.504Z,95.61
2023-03-02T02:41:54.695Z,94.90
2023-03-02T02:44:23.195Z,94.98
2023-03-02T02:46:51.250Z,95.87
2023-03-02T02:49:33.383Z,96.35
2023-03-02T02:52:03.091Z,96.08
2023-03-02T02:54:33.397Z,95.47
2023-03-02T02:57:03.501Z,95.36
2023-03-02T02:59:45.698Z,95.11
2023-03-02T03:02:23.940Z,95.06
2023-03-02T03:04:52.413Z,95.54
2023-03-02T03:07:24.614Z,95.73
2023-03-02T03:10:09.145Z,94.82
2023-03-02T03:12:39.766Z,94.78
2023-03-02T03:15:08.635Z,94.51
2023-03-02T03:17:36.720Z,94.79
2023-03-02T03:20:11.093Z,95.34
2023-03-02T03:22:43.518Z,95.00
2023-03-02T03:25:15.442Z,94.97
2023-03-02T03:27:45.290Z,94.97
2023-03-02T03:30:14.913Z,94.93
2023-03-02T03:32:43.933Z,95.15
2023-03-02T03:35:12.861Z,95.42
2023-03-02T03:37:41.512Z,94.80
2023-03-02T03:40:10.733Z,94.65
2023-03-02T03:42:40.933Z,94.81
2023-03-02T03:45:09.385Z,95.29
2023-03-02T03:47:37.995Z,95.10
2023-03-02T03:50:07.220Z,95.33
2023-03-02T03:52:35.721Z,95.19
2023-03-02T03:55:17.236Z,95.18
2023-03-02T03:57:46.057Z,95.25
2023-03-02T04:00:19.276Z,95.69
2023-03-02T04:02:50.646Z,95.49
2023-03-02T04:05:19.100Z,95.48
2023-03-02T04:07:50.754Z,95.56
2023-03-02T04:10:19.023Z,95.63
2023-03-02T04:12:47.765Z,95.67
2023-03-02T04:15:16.687Z,95.52
2023-03-02T04:17:46.158Z,95.45
2023-03-02T04:20:20.016Z,95.38
2023-03-02T04:22:52.718Z,95.26
2023-03-02T04:25:25.343Z,95.33
2023-03-02T04:27:57.529Z,95.00
2023-03-02T04:30:29.549Z,94.91
2023-03-02T04:32:57.807Z,94.70
2023-03-02T04:35:28.007Z,94.69
2023-03-02T04:37:56.046Z,94.63
2023-03-02T04:40:24.054Z,94.55
2023-03-02T04:42:52.088Z,94.61
2023-03-02T04:45:20.122Z,94.66
2023-03-02T04:47:48.178Z,94.52
2023-03-02T04:50:16.152Z,94.59
2023-03-02T04:52:44.132Z,94.16
2023-03-02T04:55:20.239Z,94.06
2023-03-02T04:57:48.894Z,94.38
2023-03-02T05:00:19.478Z,94.58
2023-03-02T05:02:48.025Z,94.13
2023-03-02T05:05:20.195Z,94.19
2023-03-02T05:07:48.215Z,94.28
2023-03-02T05:10:18.340Z,94.27
2023-03-02T05:12:55.278Z,94.36
2023-03-02T05:15:29.311Z,94.44
2023-03-02T05:17:57.777Z,94.33
2023-03-02T05:20:30.357Z,94.50
2023-03-02T05:23:02.688Z,94.76
2023-03-02T05:25:32.601Z,94.83
2023-03-02T05:28:01.845Z,94.78
2023-03-02T05:30:31.025Z,94.93
2023-03-02T05:32:59.022Z,94.91
2023-03-02T05:35:27.454Z,94.94
2023-03-02T05:37:55.518Z,94.90
2023-03-02T05:40:23.412Z,95.01
2023-03-02T05:42:51.535Z,95.37
2023-03-02T05:45:23.797Z,95.51
2023-03-02T05:47:52.682Z,95.66
2023-03-02T05:50:21.099Z,95.59
2023-03-02T05:52:50.332Z,95.91
2023-03-02T05:55:18.621Z,96.11
2023-03-02T05:57:49.414Z,95.60
2023-03-02T06:00:18.781Z,95.48
2023-03-02T06:02:47.212Z,95.34
2023-03-02T06:05:18.673Z,95.27
2023-03-02T06:07:46.819Z,95.01
2023-03-02T06:10:17.297Z,94.79
2023-03-02T06:12:49.317Z,94.52
2023-03-02T06:15:25.568Z,94.29
2023-03-02T06:17:54.109Z,94.10
2023-03-02T06:20:22.370Z,93.69
2023-03-02T06:22:50.743Z,93.20
2023-03-02T06:25:22.114Z,93.29
2023-03-02T06:27:54.483Z,93.21
2023-03-02T06:30:25.820Z,93.14
2023-03-02T06:32:53.924Z,93.08
2023-03-02T06:35:24.071Z,92.81
2023-03-02T06:37:52.294Z,92.22
2023-03-02T06:40:21.757Z,92.03
2023-03-02T06:42:49.790Z,91.79
2023-03-02T06:45:17.860Z,91.95
2023-03-02T06:47:45.787Z,91.37
2023-03-02T06:50:13.752Z,91.20
2023-03-02T06:52:41.640Z,91.25
2023-03-02T06:55:10.234Z,91.16
2023-03-02T06:57:38.381Z,90.88
2023-03-02T07:00:12.718Z,90.69
2023-03-02T07:02:40.655Z,90.72
2023-03-02T07:05:08.843Z,90.60
2023-03-02T07:07:37.304Z,90.58
2023-03-02T07:10:07.174Z,90.04
2023-03-02T07:12:35.306Z,89.59
2023-03-02T07:15:04.007Z,89.61
2023-03-02T07:17:33.878Z,89.24
2023-03-02T07:20:01.912Z,89.53
2023-03-02T07:22:29.901Z,89.47
2023-03-02T07:24:57.941Z,89.32
2023-03-02T07:27:25.960Z,89.65
2023-03-02T07:29:54.080Z,89.52
2023-03-02T07:32:25.338Z,89.44
2023-03-02T07:34:54.308Z,89.50
2023-03-02T07:37:22.175Z,89.34
2023-03-02T07:39:50.299Z,89.08
2023-03-02T07:42:18.509Z,89.14
2023-03-02T07:44:48.713Z,88.73
2023-03-02T07:47:16.612Z,88.91
2023-03-02T07:49:45.030Z,88.97
2023-03-02T07:52:13.070Z,88.72
2023-03-02T07:54:40.965Z,88.31
2023-03-02T07:57:08.934Z,87.98
2023-03-02T07:59:36.794Z,87.68
2023-03-02T08:02:04.846Z,87.70
2023-03-02T08:04:34.894Z,87.77
2023-03-02T08:07:02.914Z,87.65
2023-03-02T08:09:30.884Z,87.75
2023-03-02T08:11:59.278Z,87.86
2023-03-02T08:14:27.263Z,87.84
2023-03-02T08:16:55.286Z,87.93
2023-03-02T08:19:23.276Z,87.69
2023-03-02T08:21:51.165Z,87.10
2023-03-02T08:24:19.048Z,87.23
2023-03-02T08:26:46.986Z,87.50
2023-03-02T08:29:14.954Z,87.70
2023-03-02T08:31:42.930Z,87.66
2023-03-02T08:34:11.797Z,87.28
2023-03-02T08:36:43.655Z,86.95
2023-03-02T08:39:11.806Z,86.84
2023-03-02T08:41:40.060Z,86.34
2023-03-02T08:44:09.152Z,85.89
2023-03-02T08:46:37.065Z,85.10
2023-03-02T08:49:04.902Z,83.92
2023-03-02T08:51:33.061Z,83.76
2023-03-02T08:54:01.457Z,82.97
2023-03-02T08:56:33.298Z,83.07
2023-03-02T08:59:07.280Z,82.60
2023-03-02T09:01:37.708Z,81.86
2023-03-02T09:04:07.678Z,81.19
2023-03-02T09:06:38.420Z,80.54
2023-03-02T09:09:07.424Z,80.67
2023-03-02T09:11:35.717Z,80.54
2023-03-02T09:14:04.330Z,80.75
2023-03-02T09:16:32.348Z,80.24
2023-03-02T09:19:00.316Z,79.74
2023-03-02T09:21:31.274Z,79.34
2023-03-02T09:23:59.444Z,79.54
2023-03-02T09:26:27.858Z,79.38
2023-03-02T09:28:56.770Z,79.21
2023-03-02T09:31:25.216Z,78.53
2023-03-02T09:33:53.282Z,79.04
2023-03-02T09:36:24.050Z,79.12
2023-03-02T09:38:52.868Z,78.98
2023-03-02T09:41:20.675Z,79.22
2023-03-02T09:43:59.755Z,79.24
2023-03-02T09:46:44.511Z,78.96
2023-03-02T09:49:31.433Z,78.94
2023-03-02T09:51:59.339Z,79.28
2023-03-02T09:54:27.399Z,79.16
2023-03-02T09:56:57.915Z,78.94
2023-03-02T09:59:48.018Z,78.93
2023-03-02T10:02:28.842Z,78.85
2023-03-02T10:05:00.933Z,78.41
2023-03-02T10:07:31.807Z,77.98
2023-03-02T10:10:18.430Z,78.36
2023-03-02T10:13:12.050Z,78.79
2023-03-02T10:15:55.913Z,79.06
2023-03-02T10:18:30.815Z,78.62
2023-03-02T10:21:10.677Z,78.41
2023-03-02T10:23:49.541Z,78.39
2023-03-02T10:26:39.964Z,77.99
2023-03-02T10:29:23.684Z,77.99
2023-03-02T10:32:16.463Z,77.54
2023-03-02T10:34:44.578Z,76.78
2023-03-02T10:37:19.981Z,77.27
2023-03-02T10:39:48.592Z,77.53
2023-03-02T10:42:31.321Z,77.21
2023-03-02T10:45:09.519Z,75.83
2023-03-02T10:47:37.513Z,75.78
2023-03-02T10:50:21.544Z,75.66
2023-03-02T10:52:59.737Z,76.20
2023-03-02T10:55:29.570Z,76.61
2023-03-02T10:58:20.051Z,76.54
2023-03-02T11:01:03.772Z,76.26
2023-03-02T11:03:33.388Z,75.87
2023-03-02T11:06:22.652Z,76.00
2023-03-02T11:09:06.257Z,75.90
2023-03-02T11:11:34.937Z,76.44
2023-03-02T11:14:15.929Z,76.49
2023-03-02T11:16:44.303Z,76.26
2023-03-02T11:19:17.973Z,76.19
2023-03-02T11:22:03.154Z,75.62
2023-03-02T11:24:41.623Z,76.11
2023-03-02T11:27:16.641Z,76.42
2023-03-02T11:29:52.272Z,76.84
2023-03-02T11:32:28.894Z,76.89
2023-03-02T11:35:11.513Z,76.68
2023-03-02T11:37:45.535Z,76.83
2023-03-02T11:40:17.450Z,76.60
2023-03-02T11:42:47.125Z,76.37
2023-03-02T11:45:17.160Z,76.15
2023-03-02T11:48:22.437Z,76.31
2023-03-02T11:51:04.162Z,76.64
2023-03-02T11:53:57.794Z,76.74
2023-03-02T11:56:31.308Z,76.81
2023-03-02T11:59:10.454Z,76.38
2023-03-02T12:01:40.497Z,75.78
2023-03-02T12:04:25.611Z,75.90
2023-03-02T12:06:53.776Z,75.63
2023-03-02T12:09:25.113Z,75.74
2023-03-02T12:12:19.575Z,75.90
2023-03-02T12:14:52.591Z,75.86
2023-03-02T12:17:40.821Z,75.62
2023-03-02T12:20:08.911Z,75.65
2023-03-02T12:22:37.846Z,76.01
2023-03-02T12:25:26.849Z,75.78
2023-03-02T12:27:55.760Z,75.36
2023-03-02T12:30:28.114Z,74.97
2023-03-02T12:33:11.553Z,74.43
2023-03-02T12:35:39.661Z,74.87
2023-03-02T12:38:37.347Z,74.72
2023-03-02T12:41:40.111Z,74.72
2023-03-02T12:44:34.160Z,75.27
2023-03-02T12:47:04.017Z,75.42
2023-03-02T12:49:42.313Z,74.93
2023-03-02T12:52:30.196Z,74.09
2023-03-02T12:55:22.674Z,73.35
2023-03-02T12:58:00.031Z,74.08
2023-03-02T13:00:32.072Z,73.58
2023-03-02T13:03:07.246Z,73.66
2023-03-02T13:05:36.470Z,73.75
2023-03-02T13:08:31.857Z,73.81
2023-03-02T13:11:44.375Z,73.75
2023-03-02T13:14:20.084Z,73.47
2023-03-02T13:17:05.584Z,73.29
2023-03-02T13:19:33.886Z,73.42
2023-03-02T13:22:02.244Z,73.36
2023-03-02T13:24:44.811Z,72.99
2023-03-02T13:27:19.317Z,72.84
2023-03-02T13:29:49.079Z,73.09
2023-03-02T13:32:39.128Z,73.25
2023-03-02T13:35:19.384Z,73.09
2023-03-02T13:37:47.891Z,73.08
2023-03-02T13:40:27.417Z,72.69
2023-03-02T13:42:55.934Z,73.04
2023-03-02T13:45:29.918Z,72.78
2023-03-02T13:48:00.373Z,72.79
2023-03-02T13:50:31.906Z,72.82
2023-03-02T13:53:05.414Z,72.64
2023-03-02T13:55:35.028Z,72.72
2023-03-02T13:58:03.327Z,72.95
2023-03-02T14:00:34.054Z,72.53
2023-03-02T14:03:02.131Z,72.36
2023-03-02T14:05:33.533Z,72.48
2023-03-02T14:08:07.305Z,72.36
2023-03-02T14:10:35.196Z,72.13
2023-03-02T14:13:10.455Z,72.53
2023-03-02T14:15:42.746Z,72.81
2023-03-02T14:18:29.175Z,72.61
2023-03-02T14:20:58.137Z,72.42
2023-03-02T14:23:27.394Z,72.58
2023-03-02T14:25:56.846Z,72.62
2023-03-02T14:28:31.841Z,73.02
2023-03-02T14:30:59.965Z,73.28
2023-03-02T14:33:28.075Z,73.47
2023-03-02T14:35:58.762Z,73.47
2023-03-02T14:38:27.898Z,73.28
2023-03-02T14:40:56.769Z,73.28
2023-03-02T14:43:25.354Z,72.94
2023-03-02T14:45:53.388Z,73.24
2023-03-02T14:48:21.500Z,73.32
2023-03-02T14:50:53.115Z,73.09
2023-03-02T14:53:29.917Z,73.60
2023-03-02T14:55:58.381Z,74.07
2023-03-02T14:58:34.178Z,73.82
2023-03-02T15:01:02.220Z,73.35
2023-03-02T15:03:30.674Z,73.47
2023-03-02T15:06:01.577Z,73.88
2023-03-02T15:08:30.535Z,73.63
2023-03-02T15:10:58.596Z,73.65
2023-03-02T15:13:26.789Z,73.48
2023-03-02T15:15:54.810Z,73.57
2023-03-02T15:18:22.913Z,73.51
2023-03-02T15:20:51.041Z,73.40
2023-03-02T15:23:19.242Z,72.92
2023-03-02T15:25:47.178Z,72.76
2023-03-02T15:28:15.247Z,72.75
2023-03-02T15:30:43.219Z,72.91
2023-03-02T15:33:11.216Z,73.05
2023-03-02T15:35:40.345Z,72.83
2023-03-02T15:38:08.437Z,72.62
2023-03-02T15:40:38.678Z,72.78
2023-03-02T15:43:06.935Z,73.20
2023-03-02T15:45:35.002Z,73.51
2023-03-02T15:48:03.713Z,73.78
2023-03-02T15:50:31.608Z,74.17
2023-03-02T15:52:59.650Z,74.43
2023-03-02T15:55:27.880Z,74.51
2023-03-02T15:57:58.150Z,74.66
2023-03-02T16:00:27.652Z,74.89
2023-03-02T16:02:55.617Z,75.52
2023-03-02T16:05:23.636Z,76.03
2023-03-02T16:07:51.607Z,76.35
2023-03-02T16:10:20.735Z,76.67
2023-03-02T16:12:48.714Z,76.69
2023-03-02T16:15:16.748Z,76.80
2023-03-02T16:17:44.697Z,77.35
2023-03-02T16:20:13.174Z,77.29
2023-03-02T16:22:41.157Z,77.69
2023-03-02T16:25:09.725Z,77.64
2023-03-02T16:27:37.975Z,77.80
2023-03-02T16:30:06.873Z,77.91
2023-03-02T16:32:34.828Z,77.89
2023-03-02T16:35:02.735Z,78.04
2023-03-02T16:37:30.918Z,78.51
2023-03-02T16:39:59.085Z,78.64
2023-03-02T16:42:30.624Z,78.45
2023-03-02T16:44:58.542Z,78.74
2023-03-02T16:47:26.683Z,78.81
2023-03-02T16:49:54.783Z,79.01
2023-03-02T16:52:23.147Z,79.42
2023-03-02T16:54:51.236Z,79.44
2023-03-02T16:57:19.364Z,79.40
2023-03-02T16:59:47.374Z,79.61
2023-03-02T17:02:15.845Z,80.37
2023-03-02T17:04:43.926Z,80.13
2023-03-02T17:07:11.974Z,80.13
2023-03-02T17:09:44.046Z,80.38
2023-03-02T17:12:12.097Z,81.34
2023-03-02T17:14:39.903Z,81.43
2023-03-02T17:17:07.962Z,81.62
2023-03-02T17:19:36.033Z,82.00
2023-03-02T17:22:04.481Z,82.33
2023-03-02T17:24:33.671Z,82.55
2023-03-02T17:27:01.649Z,82.78
2023-03-02T17:29:29.749Z,83.49
2023-03-02T17:31:57.842Z,83.54
2023-03-02T17:34:30.593Z,83.60
2023-03-02T17:37:00.577Z,83.18
2023-03-02T17:39:28.694Z,82.95
2023-03-02T17:41:56.786Z,83.60
2023-03-02T17:44:24.746Z,84.37
2023-03-02T17:46:52.934Z,84.71
2023-03-02T17:49:21.072Z,84.24
2023-03-02T17:51:51.854Z,84.46
2023-03-02T17:54:20.088Z,84.50
2023-03-02T17:56:48.320Z,84.33
2023-03-02T17:59:16.346Z,85.30
2023-03-02T18:01:44.867Z,85.18
2023-03-02T18:04:13.093Z,84.70
2023-03-02T18:06:41.239Z,85.52
2023-03-02T18:09:09.117Z,85.68
2023-03-02T18:11:37.467Z,85.09
2023-03-02T18:14:05.565Z,85.09
2023-03-02T18:16:35.580Z,85.28
2023-03-02T18:19:03.493Z,85.56
2023-03-02T18:21:31.436Z,86.27
2023-03-02T18:23:59.445Z,86.22
2023-03-02T18:26:27.414Z,85.88
2023-03-02T18:28:55.673Z,85.77
2023-03-02T18:31:23.890Z,86.98
2023-03-02T18:33:52.303Z,86.95
2023-03-02T18:36:20.475Z,86.44
2023-03-02T18:38:51.125Z,86.61
2023-03-02T18:41:19.829Z,86.92
2023-03-02T18:43:49.266Z,87.19
2023-03-02T18:46:23.564Z,88.08
2023-03-02T18:48:53.217Z,88.72
2023-03-02T18:51:23.233Z,88.61
2023-03-02T18:53:52.108Z,88.70
2023-03-02T18:56:24.249Z,89.33
2023-03-02T18:58:52.644Z,89.56
2023-03-02T19:01:22.338Z,89.94
2023-03-02T19:03:50.689Z,89.97
2023-03-02T19:06:21.190Z,90.41
2023-03-02T19:08:49.533Z,90.64
2023-03-02T19:11:17.580Z,90.76
2023-03-02T19:13:48.713Z,90.97
2023-03-02T19:16:18.367Z,91.17
2023-03-02T19:18:46.841Z,91.37
2023-03-02T19:21:14.783Z,91.44
2023-03-02T19:23:46.561Z,92.06
2023-03-02T19:26:15.079Z,91.85
2023-03-02T19:28:43.427Z,92.11
2023-03-02T19:31:23.537Z,92.29
2023-03-02T19:33:54.394Z,92.49
2023-03-02T19:36:22.370Z,92.45
2023-03-02T19:39:05.483Z,92.87
2023-03-02T19:41:55.858Z,93.05
2023-03-02T19:44:25.779Z,92.89
2023-03-02T19:46:53.901Z,92.55
2023-03-02T19:49:21.853Z,92.42
2023-03-02T19:51:49.763Z,92.86
2023-03-02T19:54:17.702Z,92.80
2023-03-02T19:56:50.125Z,92.71
2023-03-02T19:59:27.008Z,92.79
2023-03-02T20:02:03.776Z,92.95
2023-03-02T20:04:34.942Z,93.27
2023-03-02T20:07:03.859Z,93.16
2023-03-02T20:09:32.180Z,93.47
2023-03-02T20:12:02.622Z,93.72
2023-03-02T20:14:34.029Z,93.98
2023-03-02T20:17:03.242Z,94.25
2023-03-02T20:19:31.201Z,94.59
2023-03-02T20:21:59.252Z,94.75
2023-03-02T20:24:27.791Z,94.87
2023-03-02T20:26:56.000Z,95.03
2023-03-02T20:29:23.980Z,95.01
2023-03-02T20:31:52.238Z,95.05
2023-03-02T20:34:21.019Z,94.83
2023-03-02T20:36:50.145Z,94.86
2023-03-02T20:39:26.712Z,95.18
2023-03-02T20:41:54.674Z,95.73
2023-03-02T20:44:23.961Z,95.72
2023-03-02T20:46:58.190Z,95.82
2023-03-02T20:49:31.201Z,96.57
2023-03-02T20:52:04.650Z,96.39
2023-03-02T20:54:37.000Z,95.83
2023-03-02T20:57:06.125Z,96.44
2023-03-02T20:59:35.240Z,96.01
2023-03-02T21:02:05.721Z,95.85
2023-03-02T21:04:34.682Z,96.00
2023-03-02T21:07:04.100Z,96.14
2023-03-02T21:09:32.228Z,96.15
2023-03-02T21:12:00.344Z,96.48
2023-03-02T21:14:30.500Z,96.81
2023-03-02T21:17:00.953Z,96.81
2023-03-02T21:19:29.775Z,96.68
2023-03-02T21:21:57.985Z,96.84
2023-03-02T21:24:26.738Z,97.00
2023-03-02T21:26:55.306Z,97.39
2023-03-02T21:29:25.357Z,97.69
2023-03-02T21:31:54.510Z,98.14
2023-03-02T21:34:23.074Z,97.83
2023-03-02T21:36:54.537Z,98.00
2023-03-02T21:39:23.764Z,98.29
2023-03-02T21:41:52.662Z,98.17
2023-03-02T21:44:21.316Z,98.10
2023-03-02T21:46:50.961Z,97.97
2023-03-02T21:49:21.607Z,97.84
2023-03-02T21:51:50.254Z,99.01
2023-03-02T21:54:18.308Z,99.12
2023-03-02T21:56:46.570Z,98.24
2023-03-02T21:59:14.629Z,98.13
2023-03-02T22:01:42.685Z,98.27
2023-03-02T22:04:10.631Z,98.55
2023-03-02T22:06:38.798Z,98.41
2023-03-02T22:09:06.890Z,98.33
2023-03-02T22:11:37.220Z,98.12
2023-03-02T22:14:15.792Z,97.98
2023-03-02T22:16:48.032Z,98.30
2023-03-02T22:19:32.390Z,98.44
2023-03-02T22:22:03.297Z,97.90
2023-03-02T22:24:33.071Z,97.34
2023-03-02T22:27:22.698Z,97.33
2023-03-02T22:29:57.738Z,97.34
2023-03-02T22:32:31.205Z,97.48
2023-03-02T22:35:02.796Z,97.36
2023-03-02T22:37:34.431Z,97.39
2023-03-02T22:40:18.149Z,96.99
2023-03-02T22:42:46.024Z,97.47
2023-03-02T22:45:17.336Z,97.39
2023-03-02T22:47:49.210Z,96.79
2023-03-02T22:50:29.400Z,96.94
2023-03-02T22:53:01.132Z,96.85
2023-03-02T22:55:43.083Z,97.07
2023-03-02T22:58:46.741Z,96.96
2023-03-02T23:01:27.491Z,97.07
2023-03-02T23:04:08.388Z,97.23
2023-03-02T23:07:19.962Z,97.48
2023-03-02T23:09:49.107Z,97.34
2023-03-02T23:12:22.958Z,97.18
2023-03-02T23:14:52.254Z,96.69
2023-03-02T23:17:26.724Z,96.54
2023-03-02T23:19:56.037Z,96.60
2023-03-02T23:22:28.489Z,96.82
2023-03-02T23:24:56.923Z,96.49
2023-03-02T23:27:25.514Z,96.62
2023-03-02T23:29:54.308Z,96.46
2023-03-02T23:32:22.245Z,96.27
2023-03-02T23:34:50.416Z,96.49
2023-03-02T23:37:18.600Z,96.87
2023-03-02T23:39:46.541Z,96.80
2023-03-02T23:42:14.347Z,96.87
2023-03-02T23:44:42.230Z,97.14
2023-03-02T23:47:10.119Z,97.28
2023-03-02T23:49:38.249Z,97.27
2023-03-02T23:52:06.226Z,97.17
2023-03-02T23:54:34.137Z,97.48
2023-03-02T23:57:02.177Z,97.44
2023-03-02T23:59:30.113Z,97.94
